Time;durP1;ratioP1;P1;durP2;ratioP2;P2;SDS_P1;SDS_P2;PMS_P1;PMS_P2;Temp;Humidity;BMP_temperature;BMP_pressure;BME280_temperature;BME280_humidity;BME280_pressure;Samples;Min_cycle;Max_cycle;Signal;HPM_P1;HPM_P2
2023/08/02 00:00:16;;;;;;;6.87;3.37;;;16.50;99.90;;;;;;4991558;28;20222;-59
2023/08/02 00:02:45;;;;;;;6.90;3.90;;;16.50;99.90;;;;;;4991169;28;20313;-59
2023/08/02 00:05:13;;;;;;;5.43;4.00;;;16.50;99.90;;;;;;4991744;28;20297;-59
2023/08/02 00:07:41;;;;;;;8.40;3.60;;;16.50;99.90;;;;;;4986764;28;20218;-59
2023/08/02 00:10:11;;;;;;;6.87;3.50;;;16.50;99.90;;;;;;4995080;28;20584;-59
2023/08/02 00:12:40;;;;;;;6.57;3.67;;;16.50;99.90;;;;;;4989391;28;20764;-59
2023/08/02 00:15:09;;;;;;;9.57;4.03;;;16.50;99.90;;;;;;4990491;28;20225;-59
2023/08/02 00:17:37;;;;;;;5.63;3.93;;;16.50;99.90;;;;;;4989448;28;20294;-59
2023/08/02 00:20:08;;;;;;;7.17;4.03;;;16.50;99.90;;;;;;4989083;28;20307;-59
2023/08/02 00:22:36;;;;;;;11.10;4.00;;;16.60;99.90;;;;;;4991165;28;20706;-59
2023/08/02 00:25:05;;;;;;;8.77;4.33;;;16.50;99.90;;;;;;4985958;28;20218;-59
2023/08/02 00:27:35;;;;;;;9.17;3.60;;;16.50;99.90;;;;;;4990025;28;20193;-59
2023/08/02 00:30:04;;;;;;;7.77;3.80;;;16.50;99.90;;;;;;4989605;28;20348;-59
2023/08/02 00:32:32;;;;;;;9.03;3.67;;;16.60;99.90;;;;;;5002283;28;20217;-58
2023/08/02 00:35:03;;;;;;;4.77;3.77;;;16.60;99.90;;;;;;5010826;28;20736;-59
2023/08/02 00:37:31;;;;;;;7.00;4.17;;;16.60;99.90;;;;;;5006224;28;20224;-59
2023/08/02 00:40:00;;;;;;;7.70;4.00;;;16.60;99.90;;;;;;5005400;28;20552;-60
2023/08/02 00:42:28;;;;;;;5.63;3.93;;;16.60;99.90;;;;;;5010759;28;20230;-59
2023/08/02 00:44:58;;;;;;;6.63;3.83;;;16.60;99.90;;;;;;5011186;28;20223;-59
2023/08/02 00:47:26;;;;;;;6.07;3.90;;;16.60;99.90;;;;;;5008280;28;20222;-59
2023/08/02 00:49:55;;;;;;;6.57;3.63;;;16.60;99.90;;;;;;5010560;28;20583;-59
2023/08/02 00:52:24;;;;;;;9.20;4.20;;;16.60;99.90;;;;;;5023807;28;20236;-59
2023/08/02 00:54:52;;;;;;;8.40;3.70;;;16.70;99.90;;;;;;5022643;28;20201;-59
2023/08/02 00:57:21;;;;;;;7.13;3.60;;;16.70;99.90;;;;;;5020638;28;20211;-59
2023/08/02 00:59:49;;;;;;;8.57;3.73;;;16.70;99.90;;;;;;5028933;28;20229;-60
2023/08/02 01:02:19;;;;;;;4.20;3.30;;;16.70;99.90;;;;;;5009183;28;20243;-59
2023/08/02 01:04:48;;;;;;;7.67;3.63;;;16.70;99.90;;;;;;5029085;28;20216;-59
2023/08/02 01:07:22;;;;;;;5.50;3.60;;;16.70;99.90;;;;;;5020891;28;20236;-59
2023/08/02 01:09:58;;;;;;;7.57;4.00;;;16.70;99.90;;;;;;5006119;28;20202;-59
2023/08/02 01:12:30;;;;;;;6.97;3.83;;;16.80;99.90;;;;;;5004745;28;20290;-60
2023/08/02 01:15:02;;;;;;;3.70;3.40;;;16.70;99.90;;;;;;5023003;28;20228;-60
2023/08/02 01:17:33;;;;;;;6.80;3.63;;;16.70;99.90;;;;;;5028027;28;20236;-59
2023/08/02 01:20:06;;;;;;;5.37;3.10;;;16.80;99.90;;;;;;5022306;28;20224;-59
2023/08/02 01:22:35;;;;;;;7.47;3.90;;;16.80;99.90;;;;;;5030183;28;20243;-59
2023/08/02 01:25:04;;;;;;;7.57;4.13;;;16.80;99.90;;;;;;5026026;28;20663;-59
2023/08/02 01:27:36;;;;;;;4.87;3.43;;;16.70;99.90;;;;;;5006446;28;20190;-59
2023/08/02 01:30:07;;;;;;;7.43;3.73;;;16.70;99.90;;;;;;5009435;28;20257;-59
2023/08/02 01:32:36;;;;;;;5.10;3.60;;;16.80;99.90;;;;;;5006084;28;20229;-59
2023/08/02 01:35:07;;;;;;;6.07;3.47;;;16.80;99.90;;;;;;5008530;28;20815;-59
2023/08/02 01:37:36;;;;;;;5.20;3.70;;;16.80;99.90;;;;;;5008377;28;20224;-59
2023/08/02 01:40:05;;;;;;;3.53;3.23;;;16.80;99.90;;;;;;5000794;28;20194;-59
2023/08/02 01:42:33;;;;;;;3.67;3.00;;;16.80;99.90;;;;;;5005711;28;20196;-59
2023/08/02 01:45:01;;;;;;;3.43;3.03;;;16.80;99.90;;;;;;5005268;28;20226;-59
2023/08/02 01:47:30;;;;;;;6.97;3.50;;;16.80;99.90;;;;;;5005356;28;20705;-59
2023/08/02 01:49:58;;;;;;;5.83;3.40;;;16.80;99.90;;;;;;5002398;28;20340;-59
2023/08/02 01:52:28;;;;;;;3.10;2.90;;;16.80;99.90;;;;;;5008646;28;20237;-59
2023/08/02 01:54:56;;;;;;;4.93;2.83;;;16.80;99.90;;;;;;5007786;28;20213;-59
2023/08/02 01:57:25;;;;;;;3.53;3.23;;;16.80;99.90;;;;;;5005968;28;20186;-59
2023/08/02 01:59:53;;;;;;;3.73;3.50;;;16.80;99.90;;;;;;5003544;28;20662;-59
2023/08/02 02:02:21;;;;;;;3.40;3.10;;;16.80;99.90;;;;;;5005589;28;20585;-59
2023/08/02 02:04:50;;;;;;;8.57;3.53;;;16.80;99.90;;;;;;5011646;28;20233;-59
2023/08/02 02:07:19;;;;;;;5.60;3.43;;;16.80;99.90;;;;;;5015695;28;20309;-59
2023/08/02 02:09:48;;;;;;;5.90;3.13;;;16.80;99.90;;;;;;5012956;28;20210;-59
2023/08/02 02:12:17;;;;;;;6.23;3.40;;;16.80;99.90;;;;;;5026503;28;20236;-59
2023/08/02 02:14:45;;;;;;;4.70;3.53;;;16.80;99.90;;;;;;5029414;28;20312;-59
2023/08/02 02:17:13;;;;;;;4.97;3.30;;;16.70;99.90;;;;;;5026911;28;20560;-59
2023/08/02 02:19:42;;;;;;;4.43;3.40;;;16.70;99.90;;;;;;5024369;28;20691;-59
2023/08/02 02:22:13;;;;;;;5.10;3.57;;;16.70;99.90;;;;;;5009080;28;20619;-59
2023/08/02 02:24:41;;;;;;;5.43;3.73;;;16.70;99.90;;;;;;5006904;28;20285;-59
2023/08/02 02:27:11;;;;;;;4.53;3.40;;;16.70;99.90;;;;;;5008875;28;20317;-59
2023/08/02 02:29:39;;;;;;;7.03;3.57;;;16.60;99.90;;;;;;5018293;28;20226;-59
2023/08/02 02:32:08;;;;;;;9.63;3.63;;;16.60;99.90;;;;;;5009373;28;20602;-59
2023/08/02 02:34:36;;;;;;;6.33;4.30;;;16.60;99.90;;;;;;5005678;28;20588;-59
2023/08/02 02:37:05;;;;;;;3.90;3.50;;;16.60;99.90;;;;;;5006073;28;20297;-59
2023/08/02 02:39:34;;;;;;;6.03;4.23;;;16.60;99.90;;;;;;5011280;28;20644;-59
2023/08/02 02:42:02;;;;;;;4.80;4.30;;;16.50;99.90;;;;;;5008604;28;20221;-58
2023/08/02 02:44:42;;;;;;;4.43;4.07;;;16.60;99.90;;;;;;4987169;28;20219;-59
2023/08/02 02:47:10;;;;;;;6.77;4.17;;;16.60;99.90;;;;;;5004936;28;20225;-59
2023/08/02 02:49:39;;;;;;;4.27;3.90;;;16.60;99.90;;;;;;5003742;28;20745;-59
2023/08/02 02:52:09;;;;;;;7.00;4.60;;;16.60;99.90;;;;;;5009667;28;20893;-59
2023/08/02 02:54:38;;;;;;;5.63;4.67;;;16.50;99.90;;;;;;5008163;28;20689;-59
2023/08/02 02:57:07;;;;;;;6.27;4.63;;;16.50;99.90;;;;;;5001972;28;20226;-60
2023/08/02 02:59:35;;;;;;;7.50;5.00;;;16.50;99.90;;;;;;5004237;28;20238;-60
2023/08/02 03:02:05;;;;;;;5.90;4.67;;;16.40;99.90;;;;;;5007733;28;20621;-60
2023/08/02 03:04:37;;;;;;;6.63;5.30;;;16.40;99.90;;;;;;5005293;28;20232;-60
2023/08/02 03:07:06;;;;;;;12.43;5.43;;;16.40;99.90;;;;;;5003626;28;20209;-60
2023/08/02 03:09:34;;;;;;;6.73;5.03;;;16.30;99.90;;;;;;5005818;28;20224;-60
2023/08/02 03:12:02;;;;;;;8.20;5.80;;;16.30;99.90;;;;;;5001664;28;20212;-60
2023/08/02 03:14:31;;;;;;;7.63;5.27;;;16.30;99.90;;;;;;5001690;28;20235;-60
2023/08/02 03:16:59;;;;;;;8.30;5.50;;;16.20;99.90;;;;;;5006545;28;20586;-60
2023/08/02 03:19:29;;;;;;;7.63;5.30;;;16.20;99.90;;;;;;5000036;28;20224;-59
2023/08/02 03:21:57;;;;;;;6.83;5.27;;;16.20;99.90;;;;;;5006180;28;21173;-59
2023/08/02 03:24:25;;;;;;;8.07;5.63;;;16.20;99.90;;;;;;5003746;28;20205;-60
2023/08/02 03:26:54;;;;;;;8.03;5.70;;;16.20;99.90;;;;;;5002705;28;20761;-59
2023/08/02 03:29:22;;;;;;;6.53;5.40;;;16.20;99.90;;;;;;5001280;28;20229;-59
2023/08/02 03:31:50;;;;;;;6.50;5.37;;;16.20;99.90;;;;;;5005210;28;20221;-59
2023/08/02 03:34:20;;;;;;;8.17;5.77;;;16.10;99.90;;;;;;5008141;28;20224;-60
2023/08/02 03:36:50;;;;;;;6.33;5.67;;;16.10;99.90;;;;;;5005087;28;20189;-59
2023/08/02 03:39:18;;;;;;;6.93;5.60;;;16.10;99.90;;;;;;5006224;28;20256;-60
2023/08/02 03:41:47;;;;;;;7.27;6.23;;;16.10;99.90;;;;;;4995162;28;20217;-59
2023/08/02 03:44:16;;;;;;;7.60;5.90;;;16.20;99.90;;;;;;4986983;28;20229;-59
2023/08/02 03:46:44;;;;;;;8.47;5.70;;;16.10;99.90;;;;;;4998758;28;20223;-59
2023/08/02 03:49:13;;;;;;;11.00;6.70;;;16.10;99.90;;;;;;5004795;28;20290;-59
2023/08/02 03:51:41;;;;;;;7.60;5.87;;;16.10;99.90;;;;;;5016404;28;20239;-59
2023/08/02 03:54:12;;;;;;;9.77;6.13;;;16.10;99.90;;;;;;5028037;28;20604;-59
2023/08/02 03:56:40;;;;;;;9.43;6.30;;;16.10;99.90;;;;;;5030132;28;20237;-59
2023/08/02 03:59:09;;;;;;;7.13;5.70;;;16.10;99.90;;;;;;5023566;28;20606;-59
2023/08/02 04:01:37;;;;;;;9.53;5.67;;;16.10;99.90;;;;;;5029133;28;20215;-59
2023/08/02 04:04:06;;;;;;;6.80;5.80;;;16.10;99.90;;;;;;5017772;28;20217;-59
2023/08/02 04:06:34;;;;;;;7.00;5.87;;;16.10;99.90;;;;;;4998414;28;20745;-59
2023/08/02 04:09:02;;;;;;;8.90;5.73;;;16.10;99.90;;;;;;5006726;28;20228;-59
2023/08/02 04:11:32;;;;;;;6.90;5.17;;;16.10;99.90;;;;;;5010210;28;20229;-59
2023/08/02 04:14:00;;;;;;;6.30;5.67;;;16.10;99.90;;;;;;5021411;28;20228;-59
2023/08/02 04:16:29;;;;;;;9.63;5.60;;;16.10;99.90;;;;;;5028099;28;20228;-59
2023/08/02 04:18:57;;;;;;;8.73;5.80;;;16.10;99.90;;;;;;5025629;28;20360;-59
2023/08/02 04:21:25;;;;;;;6.10;5.10;;;16.10;99.90;;;;;;5030067;28;20190;-59
2023/08/02 04:23:54;;;;;;;9.37;5.37;;;16.10;99.90;;;;;;5003615;28;20227;-59
2023/08/02 04:26:22;;;;;;;7.60;5.30;;;16.10;99.90;;;;;;5006185;28;20322;-59
2023/08/02 04:28:53;;;;;;;5.80;5.20;;;16.10;99.90;;;;;;5009011;28;20242;-59
2023/08/02 04:31:21;;;;;;;8.57;5.33;;;16.10;99.90;;;;;;5010881;28;20221;-59
2023/08/02 04:33:49;;;;;;;7.47;5.00;;;16.10;99.90;;;;;;5025609;28;20279;-59
2023/08/02 04:36:17;;;;;;;5.93;4.87;;;16.10;99.90;;;;;;5005685;28;20228;-59
2023/08/02 04:38:46;;;;;;;5.30;4.77;;;16.10;99.90;;;;;;5018827;28;20218;-59
2023/08/02 04:41:17;;;;;;;5.90;4.33;;;16.10;99.90;;;;;;5026694;28;20235;-59
2023/08/02 04:43:47;;;;;;;7.03;4.80;;;16.10;99.90;;;;;;5028276;28;20220;-59
2023/08/02 04:46:18;;;;;;;5.13;4.63;;;16.10;99.90;;;;;;5025267;28;20257;-59
2023/08/02 04:48:46;;;;;;;5.63;4.47;;;16.10;99.90;;;;;;5028408;28;20199;-59
2023/08/02 04:51:15;;;;;;;4.53;4.13;;;16.10;99.90;;;;;;5027153;28;20240;-59
2023/08/02 04:53:47;;;;;;;4.47;4.07;;;16.10;99.90;;;;;;5025220;28;20212;-59
2023/08/02 04:56:15;;;;;;;7.97;3.97;;;16.10;99.90;;;;;;5029107;28;20219;-59
2023/08/02 04:58:44;;;;;;;3.90;3.47;;;16.10;99.90;;;;;;5011181;28;20233;-59
2023/08/02 05:01:12;;;;;;;4.13;3.83;;;16.10;99.90;;;;;;5002865;28;20312;-59
2023/08/02 05:03:44;;;;;;;5.27;3.23;;;16.10;99.90;;;;;;5003575;28;20238;-59
2023/08/02 05:06:12;;;;;;;3.37;3.10;;;16.10;99.90;;;;;;5004486;28;20268;-59
2023/08/02 05:08:41;;;;;;;4.37;3.30;;;16.10;99.90;;;;;;5002980;28;20217;-59
2023/08/02 05:11:09;;;;;;;3.70;3.40;;;16.10;99.90;;;;;;5003859;28;20333;-59
2023/08/02 05:13:38;;;;;;;3.47;3.20;;;16.10;99.90;;;;;;5002362;28;20242;-59
2023/08/02 05:16:11;;;;;;;2.70;2.50;;;16.10;99.90;;;;;;5005868;28;20205;-59
2023/08/02 05:18:40;;;;;;;3.60;3.30;;;16.10;99.90;;;;;;4997992;28;20212;-59
2023/08/02 05:21:29;;;;;;;3.20;2.70;;;16.10;99.90;;;;;;5008718;28;20847;-59
2023/08/02 05:23:58;;;;;;;2.87;2.70;;;16.20;99.90;;;;;;5013257;28;20237;-59
2023/08/02 05:26:26;;;;;;;2.73;2.53;;;16.20;99.90;;;;;;5026355;28;20224;-59
2023/08/02 05:28:54;;;;;;;2.40;2.30;;;16.20;99.90;;;;;;5016726;28;20226;-59
2023/08/02 05:31:23;;;;;;;2.30;2.20;;;16.20;99.90;;;;;;5001432;28;20225;-59
2023/08/02 05:33:51;;;;;;;2.13;2.03;;;16.20;99.90;;;;;;5007469;28;20196;-59
2023/08/02 05:36:19;;;;;;;2.23;2.13;;;16.20;99.90;;;;;;5023534;28;20199;-59
2023/08/02 05:38:49;;;;;;;2.30;2.10;;;16.20;99.90;;;;;;5017259;28;20234;-59
2023/08/02 05:41:17;;;;;;;2.10;2.00;;;16.20;99.90;;;;;;5027264;28;20588;-59
2023/08/02 05:43:46;;;;;;;2.13;1.90;;;16.20;99.90;;;;;;5029635;28;20240;-59
2023/08/02 05:46:14;;;;;;;2.10;2.00;;;16.30;99.90;;;;;;5028800;28;20228;-59
2023/08/02 05:48:43;;;;;;;1.73;1.63;;;16.30;99.90;;;;;;5024497;28;20197;-59
2023/08/02 05:51:12;;;;;;;1.70;1.60;;;16.30;99.90;;;;;;5031772;28;20232;-60
2023/08/02 05:53:40;;;;;;;1.70;1.70;;;16.40;99.90;;;;;;5029006;28;20228;-59
2023/08/02 05:56:10;;;;;;;1.97;1.77;;;16.30;99.90;;;;;;5029620;28;20228;-59
2023/08/02 05:58:38;;;;;;;1.73;1.37;;;16.30;99.90;;;;;;5011146;28;20228;-59
2023/08/02 06:01:06;;;;;;;1.57;1.57;;;16.40;99.90;;;;;;5011525;28;20199;-59
2023/08/02 06:03:35;;;;;;;1.50;1.50;;;16.50;99.90;;;;;;5028796;28;20316;-59
2023/08/02 06:06:03;;;;;;;1.47;1.37;;;16.60;99.90;;;;;;5026539;28;20255;-59
2023/08/02 06:08:32;;;;;;;1.50;1.40;;;16.60;99.90;;;;;;5027301;28;20240;-59
2023/08/02 06:11:01;;;;;;;1.40;1.40;;;16.60;99.90;;;;;;5012333;28;20225;-59
2023/08/02 06:13:31;;;;;;;1.50;1.40;;;16.60;99.90;;;;;;5026552;28;20222;-59
2023/08/02 06:15:59;;;;;;;1.20;1.20;;;16.60;99.90;;;;;;5027815;28;20220;-60
2023/08/02 06:18:27;;;;;;;1.97;1.40;;;16.70;99.90;;;;;;5027813;28;20225;-59
2023/08/02 06:20:56;;;;;;;1.37;1.37;;;16.80;99.90;;;;;;5031834;28;20224;-59
2023/08/02 06:23:24;;;;;;;1.20;1.20;;;16.80;99.90;;;;;;5028275;28;21077;-60
2023/08/02 06:25:53;;;;;;;1.73;1.30;;;16.80;99.90;;;;;;5024621;28;20229;-60
2023/08/02 06:28:21;;;;;;;1.20;1.20;;;16.90;99.90;;;;;;5031630;28;20686;-59
2023/08/02 06:30:50;;;;;;;0.90;0.90;;;17.00;99.90;;;;;;5032090;28;20700;-58
2023/08/02 06:33:19;;;;;;;1.00;1.00;;;17.00;99.90;;;;;;5028531;28;20216;-59
2023/08/02 06:35:47;;;;;;;0.83;0.83;;;17.00;99.90;;;;;;5027973;28;20225;-59
2023/08/02 06:38:15;;;;;;;0.77;0.77;;;17.10;99.90;;;;;;5028714;28;20707;-59
2023/08/02 06:40:43;;;;;;;1.03;1.03;;;17.20;99.90;;;;;;5028680;28;20686;-59
2023/08/02 06:43:12;;;;;;;0.83;0.80;;;17.20;99.90;;;;;;5031174;28;20232;-59
2023/08/02 06:45:46;;;;;;;1.43;0.77;;;17.30;99.90;;;;;;5029167;28;20198;-59
2023/08/02 06:48:20;;;;;;;0.70;0.70;;;17.20;99.90;;;;;;5031168;28;20236;-59
2023/08/02 06:50:48;;;;;;;0.80;0.80;;;17.30;99.90;;;;;;5029319;28;20229;-59
2023/08/02 06:53:16;;;;;;;0.80;0.80;;;17.40;99.90;;;;;;5022534;28;20228;-59
2023/08/02 06:55:45;;;;;;;1.60;1.03;;;17.50;99.90;;;;;;5030824;28;20228;-59
2023/08/02 06:58:14;;;;;;;0.90;0.90;;;17.50;99.90;;;;;;5028710;28;20224;-59
2023/08/02 07:00:45;;;;;;;0.93;0.93;;;17.50;99.90;;;;;;5022440;28;20194;-59
2023/08/02 07:03:15;;;;;;;1.00;1.00;;;17.60;99.90;;;;;;5041476;28;20219;-59
2023/08/02 07:05:43;;;;;;;1.23;1.13;;;17.70;99.90;;;;;;5043813;28;20227;-59
2023/08/02 07:08:12;;;;;;;1.10;1.00;;;17.60;99.90;;;;;;5047178;28;20247;-59
2023/08/02 07:10:40;;;;;;;1.30;1.30;;;17.70;99.90;;;;;;5039113;28;20221;-59
2023/08/02 07:13:09;;;;;;;1.50;1.40;;;17.70;99.90;;;;;;5040477;28;20243;-59
2023/08/02 07:15:37;;;;;;;1.17;1.17;;;17.70;99.90;;;;;;5050457;28;20215;-59
2023/08/02 07:18:05;;;;;;;1.20;1.20;;;17.80;99.90;;;;;;5044548;28;20580;-59
2023/08/02 07:20:35;;;;;;;2.17;1.40;;;17.80;99.90;;;;;;5046777;28;20213;-59
2023/08/02 07:23:03;;;;;;;1.50;1.30;;;17.80;99.90;;;;;;5029953;28;20244;-59
2023/08/02 07:25:31;;;;;;;1.37;1.07;;;17.90;99.90;;;;;;5034166;28;20229;-59
2023/08/02 07:28:00;;;;;;;1.30;1.20;;;18.00;99.90;;;;;;5046212;28;20201;-59
2023/08/02 07:30:28;;;;;;;1.30;1.20;;;18.10;99.90;;;;;;5048090;28;20284;-59
2023/08/02 07:32:57;;;;;;;1.20;1.20;;;18.20;99.90;;;;;;5045967;28;20248;-59
2023/08/02 07:35:25;;;;;;;1.40;1.30;;;18.20;99.90;;;;;;5030457;28;20224;-59
2023/08/02 07:37:55;;;;;;;1.00;1.00;;;18.20;99.90;;;;;;5046751;28;20235;-59
2023/08/02 07:40:23;;;;;;;1.30;1.30;;;18.30;99.90;;;;;;5030751;28;20544;-60
2023/08/02 07:42:51;;;;;;;1.33;1.33;;;18.50;99.90;;;;;;5040320;28;20186;-59
2023/08/02 07:45:20;;;;;;;1.40;1.40;;;18.80;99.90;;;;;;5033967;28;20189;-59
2023/08/02 07:47:48;;;;;;;1.50;1.50;;;19.00;99.90;;;;;;5048476;28;20271;-59
2023/08/02 07:50:16;;;;;;;1.33;1.33;;;19.00;99.90;;;;;;5042943;28;20752;-59
2023/08/02 07:52:45;;;;;;;1.60;1.60;;;19.00;99.90;;;;;;5028575;28;20672;-59
2023/08/02 07:55:14;;;;;;;1.50;1.40;;;19.30;99.90;;;;;;5022053;28;20232;-59
2023/08/02 07:57:43;;;;;;;1.43;1.43;;;19.70;99.90;;;;;;5026262;28;20266;-61
2023/08/02 08:00:13;;;;;;;1.20;1.20;;;20.00;99.90;;;;;;5007716;28;20344;-59
2023/08/02 08:02:42;;;;;;;1.40;1.40;;;20.00;99.90;;;;;;5025062;28;20279;-60
2023/08/02 08:05:11;;;;;;;1.47;1.37;;;19.90;99.90;;;;;;5030120;28;20301;-60
2023/08/02 08:07:40;;;;;;;1.30;1.30;;;19.80;99.90;;;;;;5023912;28;20727;-59
2023/08/02 08:10:10;;;;;;;2.00;1.50;;;19.70;99.90;;;;;;5027632;28;20643;-59
2023/08/02 08:12:40;;;;;;;1.57;1.47;;;19.70;99.90;;;;;;5030423;28;20218;-60
2023/08/02 08:15:09;;;;;;;1.53;1.53;;;19.70;99.90;;;;;;5019326;28;20237;-60
2023/08/02 08:17:37;;;;;;;2.30;1.60;;;19.80;99.90;;;;;;5026624;28;20624;-60
2023/08/02 08:20:06;;;;;;;1.63;1.63;;;19.80;99.90;;;;;;5009415;28;20240;-60
2023/08/02 08:22:35;;;;;;;1.83;1.70;;;19.80;99.90;;;;;;5023514;28;20229;-60
2023/08/02 08:25:03;;;;;;;1.70;1.60;;;20.10;99.90;;;;;;5025825;28;20192;-60
2023/08/02 08:27:32;;;;;;;1.87;1.77;;;20.50;99.90;;;;;;5022305;28;20589;-60
2023/08/02 08:30:01;;;;;;;1.67;1.67;;;20.60;99.90;;;;;;5025464;28;20219;-59
2023/08/02 08:32:30;;;;;;;1.77;1.70;;;20.70;99.90;;;;;;5023608;28;20231;-60
2023/08/02 08:34:58;;;;;;;2.13;2.13;;;20.70;99.90;;;;;;5024372;28;20232;-59
2023/08/02 08:37:27;;;;;;;2.33;2.33;;;20.80;99.90;;;;;;5005645;28;20233;-60
2023/08/02 08:39:56;;;;;;;3.30;3.20;;;20.80;99.90;;;;;;5002332;28;20224;-58
2023/08/02 08:42:49;;;;;;;3.03;2.93;;;20.90;99.90;;;;;;5025955;28;20233;-59
2023/08/02 08:45:20;;;;;;;2.87;2.77;;;20.90;99.90;;;;;;5007916;28;20268;-59
2023/08/02 08:47:50;;;;;;;2.50;2.40;;;20.90;99.90;;;;;;5021719;28;20245;-59
2023/08/02 08:50:20;;;;;;;2.77;2.60;;;20.90;99.90;;;;;;5030217;28;20239;-60
2023/08/02 08:52:51;;;;;;;2.37;2.20;;;21.10;99.90;;;;;;5043191;28;20319;-60
2023/08/02 08:55:20;;;;;;;2.00;2.00;;;21.50;99.90;;;;;;5023508;28;20230;-59
2023/08/02 08:57:52;;;;;;;2.03;2.03;;;21.70;99.90;;;;;;5034303;28;20194;-55
2023/08/02 09:00:24;;;;;;;1.90;1.90;;;21.60;99.90;;;;;;5042310;28;20196;-60
2023/08/02 09:02:54;;;;;;;2.20;1.90;;;21.70;99.90;;;;;;5041254;28;20254;-61
2023/08/02 09:05:23;;;;;;;2.23;1.70;;;21.60;99.90;;;;;;5047686;28;20612;-60
2023/08/02 09:08:01;;;;;;;1.40;1.40;;;21.70;99.90;;;;;;5049512;28;20221;-60
2023/08/02 09:10:30;;;;;;;2.00;1.70;;;21.80;99.90;;;;;;5031742;28;20220;-60
2023/08/02 09:12:59;;;;;;;4.70;2.00;;;21.60;99.90;;;;;;5035569;28;20549;-61
2023/08/02 09:15:29;;;;;;;4.00;1.70;;;21.40;99.90;;;;;;5047472;28;20193;-60
2023/08/02 09:17:59;;;;;;;1.50;1.47;;;21.10;99.90;;;;;;5030376;28;20239;-60
2023/08/02 09:20:31;;;;;;;1.33;1.23;;;20.70;99.90;;;;;;5047103;28;20229;-59
2023/08/02 09:23:15;;;;;;;1.77;1.67;;;20.40;99.90;;;;;;5049984;28;20306;-59
2023/08/02 09:25:43;;;;;;;2.73;1.40;;;20.20;99.90;;;;;;5047688;28;20315;-60
2023/08/02 09:28:12;;;;;;;1.50;1.40;;;20.10;99.90;;;;;;5046079;28;20667;-60
2023/08/02 09:30:42;;;;;;;2.63;1.50;;;20.10;99.90;;;;;;5043901;28;20196;-60
2023/08/02 09:33:10;;;;;;;2.13;1.60;;;20.10;99.90;;;;;;5049174;28;20224;-60
2023/08/02 09:35:51;;;;;;;1.50;1.10;;;20.30;99.90;;;;;;5050216;28;20240;-61
2023/08/02 09:38:21;;;;;;;2.77;1.20;;;20.60;99.90;;;;;;5045903;28;20225;-61
2023/08/02 09:40:51;;;;;;;2.43;1.10;;;21.00;99.90;;;;;;5049990;28;20269;-59
2023/08/02 09:43:45;;;;;;;3.43;1.20;;;22.30;99.90;;;;;;5049486;28;20290;-59
2023/08/02 09:46:26;;;;;;;3.20;1.30;;;23.30;98.40;;;;;;5050124;28;20221;-59
2023/08/02 09:48:55;;;;;;;4.40;1.40;;;23.60;85.70;;;;;;5046715;28;20627;-59
2023/08/02 09:51:40;;;;;;;3.93;1.60;;;23.40;87.80;;;;;;5049544;28;20927;-60
2023/08/02 09:54:10;;;;;;;4.97;2.07;;;22.90;83.70;;;;;;5049245;28;20256;-59
2023/08/02 09:56:40;;;;;;;5.23;1.87;;;22.90;93.20;;;;;;5046517;28;20228;-61
2023/08/02 09:59:13;;;;;;;4.17;1.83;;;23.60;69.80;;;;;;5049633;28;20224;-60
2023/08/02 10:01:47;;;;;;;4.27;1.90;;;24.30;39.00;;;;;;5052968;28;20213;-60
2023/08/02 10:04:19;;;;;;;3.83;1.90;;;24.30;4.60;;;;;;5047465;28;20243;-60
2023/08/02 10:06:53;;;;;;;4.80;1.90;;;24.90;2.00;;;;;;5037809;28;20685;-60
2023/08/02 10:09:27;;;;;;;2.83;1.80;;;24.90;1.00;;;;;;5035303;28;20285;-60
2023/08/02 10:12:02;;;;;;;4.78;1.88;;;24.90;1.00;;;;;;5036589;28;20242;-60
2023/08/02 10:14:31;;;;;;;8.35;2.40;;;25.60;1.00;;;;;;5043971;28;20719;-60
2023/08/02 10:17:02;;;;;;;5.03;1.73;;;25.50;1.00;;;;;;5046960;28;20575;-60
2023/08/02 10:19:33;;;;;;;5.80;2.40;;;24.50;1.00;;;;;;5051271;28;20304;-60
2023/08/02 10:22:03;;;;;;;9.90;2.00;;;23.80;1.00;;;;;;5045709;28;20193;-59
2023/08/02 10:24:32;;;;;;;6.80;2.00;;;23.50;1.00;;;;;;5043443;28;20279;-60
2023/08/02 10:27:05;;;;;;;3.53;2.00;;;23.20;1.00;;;;;;5037451;28;20235;-60
2023/08/02 10:29:34;;;;;;;8.20;2.40;;;23.30;34.00;;;;;;5044355;28;20217;-60
2023/08/02 10:32:13;;;;;;;8.25;2.20;;;24.10;1.00;;;;;;5036122;28;20255;-60
2023/08/02 10:34:50;;;;;;;2.85;2.10;;;25.20;1.00;;;;;;5039599;28;20227;-60
2023/08/02 10:37:20;;;;;;;5.07;1.90;;;25.70;1.00;;;;;;5038172;28;20223;-60
2023/08/02 10:39:57;;;;;;;4.60;1.95;;;26.10;1.00;;;;;;5045472;28;20214;-60
2023/08/02 10:42:29;;;;;;;3.67;1.60;;;26.10;1.00;;;;;;5030128;28;20657;-60
2023/08/02 10:45:15;;;;;;;3.33;1.63;;;26.00;1.00;;;;;;5046491;28;20234;-60
2023/08/02 10:47:45;;;;;;;3.58;1.45;;;25.60;1.00;;;;;;5031083;28;20323;-60
2023/08/02 10:50:45;;;;;;;6.47;1.80;;;25.20;1.00;;;;;;5038414;28;20305;-60
2023/08/02 10:53:14;;;;;;;3.80;1.80;;;24.80;1.00;;;;;;5046017;28;20690;-60
2023/08/02 10:56:04;;;;;;;8.70;2.13;;;24.60;1.00;;;;;;5044408;28;20232;-60
2023/08/02 10:58:52;;;;;;;5.80;1.80;;;24.20;1.00;;;;;;5045961;28;20221;-60
2023/08/02 11:01:21;;;;;;;5.23;1.90;;;24.40;1.00;;;;;;5040948;28;20221;-59
2023/08/02 11:03:51;;;;;;;5.47;1.60;;;24.60;1.00;;;;;;5040695;28;20251;-56
2023/08/02 11:06:30;;;;;;;6.97;1.83;;;25.10;1.00;;;;;;5045949;28;20279;-60
2023/08/02 11:09:05;;;;;;;4.60;1.93;;;24.60;1.00;;;;;;5039473;28;21392;-61
2023/08/02 11:11:36;;;;;;;3.77;1.73;;;24.60;1.00;;;;;;5042028;28;20224;-60
2023/08/02 11:14:04;;;;;;;4.40;1.77;;;24.30;1.00;;;;;;5035471;28;20224;-60
2023/08/02 11:16:40;;;;;;;3.90;1.70;;;23.90;1.00;;;;;;5041670;28;20312;-59
2023/08/02 11:19:22;;;;;;;2.83;1.63;;;23.70;1.00;;;;;;5043189;28;20262;-59
2023/08/02 11:21:54;;;;;;;3.47;1.40;;;24.40;1.00;;;;;;5045779;28;20196;-59
2023/08/02 11:24:23;;;;;;;1.50;1.10;;;24.90;1.00;;;;;;5049769;28;20585;-60
2023/08/02 11:26:58;;;;;;;3.80;1.33;;;25.30;1.00;;;;;;5047957;28;20754;-60
2023/08/02 11:29:27;;;;;;;4.40;1.30;;;25.50;1.00;;;;;;5030200;28;20217;-60
2023/08/02 11:31:58;;;;;;;2.23;1.23;;;25.10;1.00;;;;;;5040680;28;20988;-60
2023/08/02 11:34:27;;;;;;;3.53;1.40;;;24.50;7.70;;;;;;5048051;28;20228;-60
2023/08/02 11:36:56;;;;;;;3.00;1.40;;;24.00;99.90;;;;;;5045424;28;20284;-60
2023/08/02 11:39:24;;;;;;;2.73;1.40;;;24.00;99.90;;;;;;5043806;28;20209;-60
2023/08/02 11:42:03;;;;;;;1.37;1.20;;;24.10;99.90;;;;;;5043992;28;20227;-60
2023/08/02 11:44:31;;;;;;;2.83;1.50;;;24.50;99.90;;;;;;5039315;28;20236;-60
2023/08/02 11:47:02;;;;;;;3.90;1.77;;;24.50;1.00;;;;;;5048374;28;20220;-60
2023/08/02 11:49:31;;;;;;;3.10;1.40;;;24.50;1.00;;;;;;5047211;28;20774;-60
2023/08/02 11:52:02;;;;;;;1.97;1.40;;;24.30;1.00;;;;;;5046494;28;20224;-59
2023/08/02 11:54:30;;;;;;;4.23;1.80;;;23.90;1.00;;;;;;5047404;28;20216;-59
2023/08/02 11:56:59;;;;;;;2.43;1.30;;;23.60;1.00;;;;;;5048289;28;20231;-60
2023/08/02 11:59:29;;;;;;;2.13;1.47;;;23.80;1.00;;;;;;5052324;28;20220;-60
2023/08/02 12:01:58;;;;;;;4.20;1.30;;;23.80;1.00;;;;;;5048206;28;20213;-61
2023/08/02 12:04:26;;;;;;;1.13;0.80;;;24.00;1.00;;;;;;5047265;28;20278;-60
2023/08/02 12:06:56;;;;;;;2.57;1.00;;;24.00;99.90;;;;;;5046793;28;20285;-59
2023/08/02 12:09:40;;;;;;;3.00;1.43;;;24.10;1.00;;;;;;5049674;28;20287;-60
2023/08/02 12:12:09;;;;;;;1.20;0.90;;;24.10;1.00;;;;;;5043832;28;20267;-60
2023/08/02 12:14:37;;;;;;;1.40;1.00;;;24.10;1.00;;;;;;5050887;28;20225;-60
2023/08/02 12:17:06;;;;;;;2.90;1.00;;;24.30;1.00;;;;;;5048079;28;20300;-59
2023/08/02 12:19:39;;;;;;;1.93;0.80;;;24.50;99.90;;;;;;5044165;28;21434;-60
2023/08/02 12:22:09;;;;;;;2.43;0.90;;;24.00;99.90;;;;;;5043942;28;20810;-59
2023/08/02 12:24:37;;;;;;;0.70;0.70;;;23.60;99.90;;;;;;5031711;28;20206;-59
2023/08/02 12:27:16;;;;;;;1.63;0.80;;;23.20;99.90;;;;;;5048031;28;20346;-59
2023/08/02 12:29:46;;;;;;;1.00;0.67;;;22.80;1.00;;;;;;5045791;28;20223;-59
2023/08/02 12:32:25;;;;;;;2.37;0.93;;;22.50;1.00;;;;;;5049238;28;20598;-60
2023/08/02 12:34:54;;;;;;;1.77;0.90;;;22.40;1.00;;;;;;5043120;28;20784;-59
2023/08/02 12:37:38;;;;;;;1.87;0.80;;;22.30;1.00;;;;;;5048448;28;20215;-59
2023/08/02 12:40:08;;;;;;;1.43;0.90;;;22.30;99.90;;;;;;5045538;28;20658;-59
2023/08/02 12:42:36;;;;;;;4.87;0.90;;;22.20;99.90;;;;;;5043892;28;20286;-59
2023/08/02 12:45:26;;;;;;;1.83;0.90;;;22.10;99.90;;;;;;5045845;28;20216;-59
2023/08/02 12:47:55;;;;;;;1.80;0.80;;;22.00;1.00;;;;;;5050048;28;20309;-59
2023/08/02 12:50:23;;;;;;;2.03;1.00;;;22.10;1.00;;;;;;5049019;28;20701;-59
2023/08/02 12:52:57;;;;;;;2.77;0.90;;;22.50;99.90;;;;;;5035629;28;20253;-59
2023/08/02 12:55:25;;;;;;;2.40;1.00;;;22.70;1.00;;;;;;5042627;28;20229;-60
2023/08/02 12:57:53;;;;;;;3.03;1.40;;;22.90;1.00;;;;;;5024907;28;20197;-59
2023/08/02 13:00:22;;;;;;;2.63;1.13;;;23.10;1.00;;;;;;5040062;28;20204;-60
2023/08/02 13:02:50;;;;;;;1.63;1.10;;;23.20;99.90;;;;;;5043541;28;20228;-60